Wetterdaten: Woche 26.06.06 - 02.07.06 (KW26)
Datum Zeit Temperatur Luftfeuchte Luftdruck Niederschlag Wind Richtung Sonnenschein UV-Strahlung Solar Taupunkt Windchill Windben
26.06.2006 00:00 16.8 C 93 % 1016.0 hPa 1.3 l/m 5.3 km/h (1 Bft) S-SO 0.00 h 0.0 UV-I 0 W/m 15.7 C 16.8 C 5.3 km/h (1 Bft)
26.06.2006 01:00 16.7 C 96 % 1016.0 hPa 1.3 l/m 1.0 km/h (0 Bft) O-SO 0.00 h 0.0 UV-I 0 W/m 16.1 C 16.7 C 1.0 km/h (0 Bft)
26.06.2006 02:00 16.8 C 97 % 1015.2 hPa 0.6 l/m 0.0 km/h (0 Bft) N 0.00 h 0.0 UV-I 0 W/m 16.3 C 16.8 C 0.0 km/h (0 Bft)
26.06.2006 03:00 16.8 C 97 % 1015.2 hPa 0.0 l/m 0.1 km/h (0 Bft) O-SO 0.00 h 0.0 UV-I 0 W/m 16.4 C 16.8 C 0.1 km/h (0 Bft)
26.06.2006 04:00 16.7 C 98 % 1015.2 hPa 0.0 l/m 0.0 km/h (0 Bft) N 0.00 h 0.0 UV-I 0 W/m 16.4 C 16.7 C 0.0 km/h (0 Bft)
26.06.2006 05:00 16.5 C 98 % 1015.3 hPa 0.0 l/m 0.4 km/h (0 Bft) O 0.00 h 0.0 UV-I 7 W/m 16.2 C 16.5 C 0.4 km/h (0 Bft)
26.06.2006 06:00 16.6 C 98 % 1015.7 hPa 0.0 l/m 0.2 km/h (0 Bft) W-NW 0.00 h 0.0 UV-I 31 W/m 16.4 C 16.6 C 0.2 km/h (0 Bft)
26.06.2006 07:00 16.8 C 99 % 1016.3 hPa 0.0 l/m 1.1 km/h (1 Bft) W-NW 0.00 h 0.0 UV-I 89 W/m 16.6 C 16.8 C 1.1 km/h (1 Bft)
26.06.2006 08:00 17.5 C 96 % 1016.2 hPa 0.0 l/m 0.0 km/h (0 Bft) N 0.53 h 0.0 UV-I 256 W/m 16.8 C 17.5 C 0.0 km/h (0 Bft)
26.06.2006 09:00 19.0 C 84 % 1016.4 hPa 0.0 l/m 1.3 km/h (1 Bft) W-NW 0.77 h 0.0 UV-I 446 W/m 16.2 C 19.0 C 1.3 km/h (1 Bft)
26.06.2006 10:00 20.4 C 68 % 1016.8 hPa 0.0 l/m 4.8 km/h (1 Bft) W 0.97 h 0.0 UV-I 644 W/m 14.3 C 20.4 C 4.8 km/h (1 Bft)
26.06.2006 11:00 21.9 C 60 % 1016.6 hPa 0.0 l/m 14.1 km/h (3 Bft) W 0.97 h 0.0 UV-I 787 W/m 13.7 C 21.9 C 14.1 km/h (3 Bft)
26.06.2006 12:00 23.4 C 53 % 1016.4 hPa 0.0 l/m 11.8 km/h (2 Bft) W 1.00 h 0.0 UV-I 830 W/m 13.3 C 23.4 C 11.8 km/h (2 Bft)
26.06.2006 13:00 24.6 C 50 % 1015.8 hPa 0.0 l/m 10.7 km/h (2 Bft) W 1.00 h 0.0 UV-I 820 W/m 13.6 C 24.6 C 10.7 km/h (2 Bft)
26.06.2006 14:00 25.7 C 49 % 1015.1 hPa 0.0 l/m 12.0 km/h (2 Bft) W-NW 0.87 h 0.0 UV-I 757 W/m 14.1 C 25.7 C 12.0 km/h (2 Bft)
26.06.2006 15:00 26.2 C 46 % 1015.1 hPa 0.0 l/m 15.2 km/h (3 Bft) W 1.00 h 0.0 UV-I 755 W/m 13.7 C 26.2 C 15.2 km/h (3 Bft)
26.06.2006 16:00 26.9 C 45 % 1015.0 hPa 0.0 l/m 14.8 km/h (3 Bft) W 1.00 h 0.0 UV-I 660 W/m 13.8 C 26.9 C 14.8 km/h (3 Bft)
26.06.2006 17:00 27.1 C 45 % 1015.0 hPa 0.0 l/m 12.4 km/h (3 Bft) W 0.80 h 0.0 UV-I 455 W/m 14.1 C 27.1 C 12.4 km/h (3 Bft)
26.06.2006 18:00 26.6 C 46 % 1015.0 hPa 0.0 l/m 12.5 km/h (3 Bft) W-NW 0.88 h 0.0 UV-I 349 W/m 14.2 C 26.6 C 12.5 km/h (3 Bft)
26.06.2006 19:00 26.2 C 48 % 1015.2 hPa 0.0 l/m 13.1 km/h (3 Bft) W 1.00 h 0.0 UV-I 201 W/m 14.3 C 26.2 C 13.1 km/h (3 Bft)
26.06.2006 20:00 24.4 C 54 % 1016.3 hPa 0.0 l/m 9.5 km/h (2 Bft) W-NW 0.32 h 0.0 UV-I 61 W/m 14.4 C 24.4 C 9.5 km/h (2 Bft)
26.06.2006 21:00 22.5 C 64 % 1017.3 hPa 0.0 l/m 1.7 km/h (1 Bft) W-NW 0.10 h 0.0 UV-I 13 W/m 15.3 C 22.5 C 1.7 km/h (1 Bft)
26.06.2006 22:00 20.6 C 73 % 1017.9 hPa 0.0 l/m 5.2 km/h (1 Bft) O 0.00 h 0.0 UV-I 0 W/m 15.6 C 20.6 C 5.2 km/h (1 Bft)
26.06.2006 23:00 19.3 C 84 % 1018.0 hPa 0.0 l/m 3.5 km/h (1 Bft) O-SO 0.00 h 0.0 UV-I 0 W/m 16.5 C 19.3 C 3.5 km/h (1 Bft)
27.06.2006 00:00 18.3 C 87 % 1018.1 hPa 0.0 l/m 1.2 km/h (1 Bft) O-SO 0.00 h 0.0 UV-I 0 W/m 16.2 C 18.3 C 1.2 km/h (1 Bft)
27.06.2006 01:00 17.5 C 93 % 1018.3 hPa 0.0 l/m 0.9 km/h (0 Bft) O-SO 0.00 h 0.0 UV-I 0 W/m 16.3 C 17.5 C 0.9 km/h (0 Bft)
27.06.2006 02:00 16.8 C 93 % 1018.3 hPa 0.0 l/m 0.0 km/h (0 Bft) N 0.00 h 0.0 UV-I 0 W/m 15.7 C 16.8 C 0.0 km/h (0 Bft)
27.06.2006 03:00 16.3 C 96 % 1018.4 hPa 0.0 l/m 0.0 km/h (0 Bft) N 0.00 h 0.0 UV-I 0 W/m 15.6 C 16.3 C 0.0 km/h (0 Bft)
27.06.2006 04:00 16.1 C 91 % 1018.3 hPa 0.0 l/m 0.1 km/h (0 Bft) N 0.00 h 0.0 UV-I 0 W/m 14.7 C 16.1 C 0.1 km/h (0 Bft)
27.06.2006 05:00 15.8 C 92 % 1018.2 hPa 0.0 l/m 0.2 km/h (0 Bft) W-SW 0.03 h 0.0 UV-I 13 W/m 14.4 C 15.8 C 0.2 km/h (0 Bft)
27.06.2006 06:00 15.9 C 87 % 1017.9 hPa 0.0 l/m 0.7 km/h (0 Bft) W-SW 0.12 h 0.0 UV-I 59 W/m 13.6 C 15.9 C 0.7 km/h (0 Bft)
27.06.2006 07:00 16.6 C 83 % 1018.4 hPa 0.0 l/m 0.6 km/h (0 Bft) N-NW 0.93 h 0.0 UV-I 217 W/m 13.7 C 16.6 C 0.6 km/h (0 Bft)
27.06.2006 08:00 18.4 C 74 % 1017.7 hPa 0.0 l/m 2.9 km/h (1 Bft) W-NW 1.00 h 0.0 UV-I 391 W/m 13.5 C 18.4 C 2.9 km/h (1 Bft)
27.06.2006 09:00 20.2 C 69 % 1018.3 hPa 0.3 l/m 8.8 km/h (2 Bft) W-NW 0.35 h 0.0 UV-I 223 W/m 14.2 C 20.2 C 8.8 km/h (2 Bft)
27.06.2006 10:00 19.1 C 80 % 1018.4 hPa 0.3 l/m 4.1 km/h (1 Bft) NW 0.03 h 0.0 UV-I 193 W/m 15.6 C 19.1 C 4.1 km/h (1 Bft)
27.06.2006 11:00 18.4 C 88 % 1020.1 hPa 1.6 l/m 18.6 km/h (3 Bft) W 0.00 h 0.0 UV-I 51 W/m 16.3 C 18.4 C 18.6 km/h (3 Bft)
27.06.2006 12:00 18.6 C 95 % 1018.8 hPa 0.0 l/m 7.0 km/h (2 Bft) O-SO 0.18 h 0.0 UV-I 265 W/m 17.8 C 18.6 C 7.0 km/h (2 Bft)
27.06.2006 13:00 21.3 C 80 % 1018.4 hPa 0.0 l/m 6.3 km/h (2 Bft) SW 0.88 h 0.0 UV-I 766 W/m 17.6 C 21.3 C 6.3 km/h (2 Bft)
27.06.2006 14:00 24.0 C 67 % 1017.3 hPa 0.0 l/m 3.7 km/h (1 Bft) S-SW 1.00 h 0.0 UV-I 719 W/m 17.3 C 24.0 C 3.7 km/h (1 Bft)
27.06.2006 15:00 25.9 C 57 % 1016.1 hPa 0.0 l/m 6.5 km/h (2 Bft) W 1.00 h 0.0 UV-I 729 W/m 16.6 C 25.9 C 6.5 km/h (2 Bft)
27.06.2006 16:00 27.4 C 48 % 1015.8 hPa 0.0 l/m 15.2 km/h (3 Bft) W 1.00 h 0.0 UV-I 638 W/m 15.5 C 27.4 C 15.2 km/h (3 Bft)
27.06.2006 17:00 26.0 C 50 % 1015.5 hPa 0.0 l/m 14.1 km/h (3 Bft) W 0.15 h 0.0 UV-I 178 W/m 14.8 C 26.0 C 14.1 km/h (3 Bft)
27.06.2006 18:00 24.4 C 56 % 1015.4 hPa 0.0 l/m 9.5 km/h (2 Bft) W 0.00 h 0.0 UV-I 98 W/m 15.0 C 24.4 C 9.5 km/h (2 Bft)
27.06.2006 19:00 25.5 C 54 % 1016.2 hPa 0.0 l/m 5.3 km/h (1 Bft) W 0.72 h 0.0 UV-I 194 W/m 15.5 C 25.5 C 5.3 km/h (1 Bft)
27.06.2006 20:00 23.6 C 61 % 1016.4 hPa 0.0 l/m 2.0 km/h (1 Bft) O-SO 0.00 h 0.0 UV-I 36 W/m 15.5 C 23.6 C 2.0 km/h (1 Bft)
27.06.2006 21:00 21.6 C 70 % 1016.7 hPa 0.0 l/m 1.7 km/h (1 Bft) O-SO 0.00 h 0.0 UV-I 12 W/m 15.9 C 21.6 C 1.7 km/h (1 Bft)
27.06.2006 22:00 20.4 C 77 % 1016.6 hPa 0.0 l/m 5.8 km/h (2 Bft) O-SO 0.00 h 0.0 UV-I 0 W/m 16.2 C 20.4 C 5.8 km/h (2 Bft)
27.06.2006 23:00 19.5 C 81 % 1017.0 hPa 0.0 l/m 4.8 km/h (1 Bft) O-SO 0.00 h 0.0 UV-I 0 W/m 16.2 C 19.5 C 4.8 km/h (1 Bft)
28.06.2006 00:00 19.0 C 85 % 1017.6 hPa 0.0 l/m 2.1 km/h (1 Bft) O-SO 0.00 h 0.0 UV-I 0 W/m 16.4 C 19.0 C 2.1 km/h (1 Bft)
28.06.2006 01:00 18.7 C 87 % 1017.5 hPa 0.3 l/m 4.0 km/h (1 Bft) SO 0.00 h 0.0 UV-I 0 W/m 16.4 C 18.7 C 4.0 km/h (1 Bft)
28.06.2006 02:00 18.6 C 92 % 1018.0 hPa 0.6 l/m 4.2 km/h (1 Bft) O-SO 0.00 h 0.0 UV-I 0 W/m 17.4 C 18.6 C 4.2 km/h (1 Bft)
28.06.2006 03:00 18.6 C 95 % 1018.5 hPa 0.0 l/m 3.9 km/h (1 Bft) S 0.00 h 0.0 UV-I 0 W/m 17.7 C 18.6 C 3.9 km/h (1 Bft)
28.06.2006 04:00 17.9 C 96 % 1017.1 hPa 0.0 l/m 6.6 km/h (2 Bft) O-SO 0.00 h 0.0 UV-I 0 W/m 17.2 C 17.9 C 6.6 km/h (2 Bft)
28.06.2006 05:00 17.8 C 95 % 1018.0 hPa 0.0 l/m 4.7 km/h (1 Bft) O-SO 0.00 h 0.0 UV-I 4 W/m 16.9 C 17.8 C 4.7 km/h (1 Bft)
28.06.2006 06:00 17.7 C 95 % 1017.8 hPa 0.0 l/m 1.3 km/h (1 Bft) O 0.00 h 0.0 UV-I 38 W/m 16.9 C 17.7 C 1.3 km/h (1 Bft)
28.06.2006 07:00 18.1 C 95 % 1017.2 hPa 0.0 l/m 1.1 km/h (1 Bft) SO 0.73 h 0.0 UV-I 168 W/m 17.3 C 18.1 C 1.1 km/h (1 Bft)
28.06.2006 08:00 19.1 C 90 % 1017.0 hPa 0.0 l/m 3.5 km/h (1 Bft) O-SO 0.70 h 0.0 UV-I 348 W/m 17.4 C 19.1 C 3.5 km/h (1 Bft)
28.06.2006 09:00 20.6 C 80 % 1016.8 hPa 0.0 l/m 1.6 km/h (1 Bft) NW 0.57 h 0.0 UV-I 365 W/m 17.0 C 20.6 C 1.6 km/h (1 Bft)
28.06.2006 10:00 21.3 C 74 % 1017.6 hPa 0.0 l/m 0.6 km/h (0 Bft) W 0.00 h 0.0 UV-I 243 W/m 16.6 C 21.3 C 0.6 km/h (0 Bft)
28.06.2006 11:00 21.9 C 71 % 1017.7 hPa 0.0 l/m 6.7 km/h (2 Bft) SW 0.53 h 0.0 UV-I 447 W/m 16.4 C 21.9 C 6.7 km/h (2 Bft)
28.06.2006 12:00 22.8 C 65 % 1017.6 hPa 0.0 l/m 8.5 km/h (2 Bft) S 0.53 h 0.0 UV-I 487 W/m 16.0 C 22.8 C 8.5 km/h (2 Bft)
28.06.2006 13:00 24.5 C 56 % 1016.7 hPa 0.0 l/m 5.3 km/h (1 Bft) SO 0.97 h 0.0 UV-I 812 W/m 15.2 C 24.5 C 5.3 km/h (1 Bft)
28.06.2006 14:00 26.0 C 50 % 1016.1 hPa 0.0 l/m 5.4 km/h (1 Bft) S-SO 1.00 h 0.0 UV-I 808 W/m 14.6 C 26.0 C 5.4 km/h (1 Bft)
28.06.2006 15:00 27.4 C 46 % 1016.0 hPa 0.0 l/m 5.3 km/h (1 Bft) SO 1.00 h 0.0 UV-I 757 W/m 14.7 C 27.4 C 5.3 km/h (1 Bft)
28.06.2006 16:00 28.2 C 42 % 1014.9 hPa 0.0 l/m 7.2 km/h (2 Bft) SO 1.00 h 0.0 UV-I 676 W/m 14.1 C 28.2 C 7.2 km/h (2 Bft)
28.06.2006 17:00 26.3 C 47 % 1015.1 hPa 0.0 l/m 3.9 km/h (1 Bft) O-SO 0.20 h 0.0 UV-I 199 W/m 14.2 C 26.3 C 3.9 km/h (1 Bft)
28.06.2006 18:00 26.2 C 51 % 1015.1 hPa 0.0 l/m 1.7 km/h (1 Bft) O-SO 0.53 h 0.0 UV-I 260 W/m 15.3 C 26.2 C 1.7 km/h (1 Bft)
28.06.2006 19:00 26.9 C 46 % 1014.1 hPa 0.0 l/m 4.8 km/h (1 Bft) O-SO 0.90 h 0.0 UV-I 257 W/m 14.3 C 26.9 C 4.8 km/h (1 Bft)
28.06.2006 20:00 25.4 C 51 % 1015.4 hPa 0.0 l/m 2.9 km/h (1 Bft) N-NO 0.52 h 0.0 UV-I 86 W/m 14.6 C 25.4 C 2.9 km/h (1 Bft)
28.06.2006 21:00 22.9 C 63 % 1016.3 hPa 0.0 l/m 2.7 km/h (1 Bft) SW 0.03 h 0.0 UV-I 11 W/m 15.4 C 22.9 C 2.7 km/h (1 Bft)
28.06.2006 22:00 22.1 C 64 % 1016.9 hPa 0.0 l/m 6.1 km/h (2 Bft) N-NW 0.00 h 0.0 UV-I 0 W/m 15.0 C 22.1 C 6.1 km/h (2 Bft)
28.06.2006 23:00 20.8 C 72 % 1017.8 hPa 2.3 l/m 8.7 km/h (2 Bft) O-SO 0.00 h 0.0 UV-I 0 W/m 15.5 C 20.8 C 8.7 km/h (2 Bft)
29.06.2006 00:00 16.1 C 85 % 1017.3 hPa 0.0 l/m 9.2 km/h (2 Bft) SO 0.00 h 0.0 UV-I 0 W/m 13.6 C 16.1 C 9.2 km/h (2 Bft)
29.06.2006 01:00 15.4 C 92 % 1018.5 hPa 0.0 l/m 3.7 km/h (1 Bft) O 0.00 h 0.0 UV-I 0 W/m 14.1 C 15.4 C 3.7 km/h (1 Bft)
29.06.2006 02:00 14.9 C 97 % 1018.6 hPa 0.0 l/m 2.3 km/h (1 Bft) O-SO 0.00 h 0.0 UV-I 0 W/m 14.5 C 14.9 C 2.3 km/h (1 Bft)
29.06.2006 03:00 14.8 C 98 % 1018.2 hPa 0.0 l/m 3.6 km/h (1 Bft) O-SO 0.00 h 0.0 UV-I 0 W/m 14.5 C 14.8 C 3.6 km/h (1 Bft)
29.06.2006 04:00 14.9 C 97 % 1017.5 hPa 0.0 l/m 0.0 km/h (0 Bft) N 0.00 h 0.0 UV-I 0 W/m 14.5 C 14.9 C 0.0 km/h (0 Bft)
29.06.2006 05:00 15.0 C 97 % 1017.9 hPa 0.0 l/m 0.0 km/h (0 Bft) N 0.00 h 0.0 UV-I 6 W/m 14.5 C 15.0 C 0.0 km/h (0 Bft)
29.06.2006 06:00 15.4 C 97 % 1018.0 hPa 0.0 l/m 0.3 km/h (0 Bft) NW 0.00 h 0.0 UV-I 35 W/m 15.0 C 15.4 C 0.3 km/h (0 Bft)
29.06.2006 07:00 16.0 C 97 % 1018.3 hPa 0.0 l/m 0.0 km/h (0 Bft) N 0.00 h 0.0 UV-I 65 W/m 15.5 C 16.0 C 0.0 km/h (0 Bft)
29.06.2006 08:00 16.7 C 95 % 1018.3 hPa 0.0 l/m 0.0 km/h (0 Bft) N 0.00 h 0.0 UV-I 118 W/m 15.9 C 16.7 C 0.0 km/h (0 Bft)
29.06.2006 09:00 18.1 C 88 % 1018.2 hPa 0.0 l/m 1.9 km/h (1 Bft) W-NW 0.73 h 0.0 UV-I 388 W/m 16.1 C 18.1 C 1.9 km/h (1 Bft)
29.06.2006 10:00 19.9 C 80 % 1017.9 hPa 0.0 l/m 2.1 km/h (1 Bft) W-NW 0.20 h 0.0 UV-I 310 W/m 16.3 C 19.9 C 2.1 km/h (1 Bft)
29.06.2006 11:00 21.7 C 73 % 1017.7 hPa 0.0 l/m 2.7 km/h (1 Bft) NW 0.63 h 0.0 UV-I 528 W/m 16.6 C 21.7 C 2.7 km/h (1 Bft)
29.06.2006 12:00 22.3 C 69 % 1017.6 hPa 0.0 l/m 1.9 km/h (1 Bft) NW 0.07 h 0.0 UV-I 249 W/m 16.4 C 22.3 C 1.9 km/h (1 Bft)
29.06.2006 13:00 19.7 C 68 % 1018.1 hPa 1.6 l/m 11.1 km/h (2 Bft) N-NO 0.00 h 0.0 UV-I 99 W/m 13.5 C 19.7 C 11.1 km/h (2 Bft)
29.06.2006 14:00 18.5 C 86 % 1019.0 hPa 0.6 l/m 9.7 km/h (2 Bft) O-SO 0.63 h 0.0 UV-I 519 W/m 16.1 C 18.5 C 9.7 km/h (2 Bft)
29.06.2006 15:00 19.6 C 72 % 1018.8 hPa 0.0 l/m 1.5 km/h (1 Bft) N-NW 0.17 h 0.0 UV-I 227 W/m 14.4 C 19.6 C 1.5 km/h (1 Bft)
29.06.2006 16:00 19.2 C 78 % 1018.9 hPa 0.0 l/m 1.2 km/h (1 Bft) S 0.00 h 0.0 UV-I 117 W/m 15.3 C 19.2 C 1.2 km/h (1 Bft)
29.06.2006 17:00 19.1 C 81 % 1019.1 hPa 0.0 l/m 0.7 km/h (0 Bft) W 0.00 h 0.0 UV-I 64 W/m 15.7 C 19.1 C 0.7 km/h (0 Bft)
29.06.2006 18:00 19.6 C 84 % 1019.0 hPa 0.3 l/m 1.5 km/h (1 Bft) W-NW 0.37 h 0.0 UV-I 203 W/m 16.7 C 19.6 C 1.5 km/h (1 Bft)
29.06.2006 19:00 20.8 C 76 % 1018.8 hPa 0.0 l/m 2.7 km/h (1 Bft) O-SO 0.67 h 0.0 UV-I 212 W/m 16.4 C 20.8 C 2.7 km/h (1 Bft)
29.06.2006 20:00 19.3 C 80 % 1019.1 hPa 0.0 l/m 2.3 km/h (1 Bft) O-SO 0.00 h 0.0 UV-I 37 W/m 15.8 C 19.3 C 2.3 km/h (1 Bft)
29.06.2006 21:00 17.8 C 88 % 1020.3 hPa 0.0 l/m 1.9 km/h (1 Bft) O-SO 0.03 h 0.0 UV-I 11 W/m 15.8 C 17.8 C 1.9 km/h (1 Bft)
29.06.2006 22:00 16.9 C 95 % 1020.7 hPa 0.0 l/m 2.1 km/h (1 Bft) O-SO 0.00 h 0.0 UV-I 0 W/m 16.0 C 16.9 C 2.1 km/h (1 Bft)
29.06.2006 23:00 16.6 C 94 % 1021.5 hPa 0.0 l/m 1.1 km/h (1 Bft) O 0.00 h 0.0 UV-I 0 W/m 15.6 C 16.6 C 1.1 km/h (1 Bft)
30.06.2006 00:00 15.7 C 99 % 1021.6 hPa 0.0 l/m 1.2 km/h (1 Bft) SO 0.00 h 0.0 UV-I 0 W/m 15.5 C 15.7 C 1.2 km/h (1 Bft)
30.06.2006 01:00 15.0 C 99 % 1021.7 hPa 0.0 l/m 0.0 km/h (0 Bft) N 0.00 h 0.0 UV-I 0 W/m 14.9 C 15.0 C 0.0 km/h (0 Bft)
30.06.2006 02:00 14.5 C 99 % 1021.8 hPa 0.0 l/m 0.0 km/h (0 Bft) N 0.00 h 0.0 UV-I 0 W/m 14.3 C 14.5 C 0.0 km/h (0 Bft)
30.06.2006 03:00 14.5 C 98 % 1021.8 hPa 0.0 l/m 0.0 km/h (0 Bft) N 0.00 h 0.0 UV-I 0 W/m 14.2 C 14.5 C 0.0 km/h (0 Bft)
30.06.2006 04:00 14.7 C 99 % 1021.7 hPa 0.0 l/m 0.5 km/h (0 Bft) W 0.00 h 0.0 UV-I 0 W/m 14.5 C 14.7 C 0.5 km/h (0 Bft)
30.06.2006 05:00 14.6 C 100 % 1021.7 hPa 0.0 l/m 0.6 km/h (0 Bft) NW 0.03 h 0.0 UV-I 10 W/m 14.6 C 14.6 C 0.6 km/h (0 Bft)
30.06.2006 06:00 14.5 C 100 % 1022.6 hPa 0.0 l/m 0.3 km/h (0 Bft) O-NO 0.00 h 0.0 UV-I 32 W/m 14.5 C 14.5 C 0.3 km/h (0 Bft)
30.06.2006 07:00 14.6 C 100 % 1022.7 hPa 0.0 l/m 0.6 km/h (0 Bft) W-NW 0.20 h 0.0 UV-I 114 W/m 14.6 C 14.6 C 0.6 km/h (0 Bft)
30.06.2006 08:00 15.5 C 98 % 1022.6 hPa 0.0 l/m 0.5 km/h (0 Bft) N 0.80 h 0.0 UV-I 298 W/m 15.2 C 15.5 C 0.5 km/h (0 Bft)
30.06.2006 09:00 18.0 C 82 % 1022.3 hPa 0.0 l/m 2.1 km/h (1 Bft) NW 1.00 h 0.0 UV-I 527 W/m 14.8 C 18.0 C 2.1 km/h (1 Bft)
30.06.2006 10:00 20.9 C 69 % 1022.0 hPa 0.0 l/m 4.2 km/h (1 Bft) N 1.00 h 0.0 UV-I 650 W/m 15.1 C 20.9 C 4.2 km/h (1 Bft)
30.06.2006 11:00 23.4 C 64 % 1021.6 hPa 0.0 l/m 7.9 km/h (2 Bft) O-SO 1.00 h 0.0 UV-I 743 W/m 16.1 C 23.4 C 7.9 km/h (2 Bft)
30.06.2006 12:00 24.8 C 54 % 1021.5 hPa 0.0 l/m 8.3 km/h (2 Bft) O 1.00 h 0.0 UV-I 794 W/m 14.9 C 24.8 C 8.3 km/h (2 Bft)
30.06.2006 13:00 25.8 C 49 % 1020.6 hPa 0.0 l/m 10.8 km/h (2 Bft) N-NO 0.90 h 0.0 UV-I 761 W/m 14.2 C 25.8 C 10.8 km/h (2 Bft)
30.06.2006 14:00 27.0 C 44 % 1020.2 hPa 0.0 l/m 18.2 km/h (3 Bft) O-SO 1.00 h 0.0 UV-I 799 W/m 13.5 C 27.0 C 18.2 km/h (3 Bft)
30.06.2006 15:00 27.8 C 38 % 1020.0 hPa 0.0 l/m 14.6 km/h (3 Bft) O-SO 1.00 h 0.0 UV-I 749 W/m 12.3 C 27.8 C 14.6 km/h (3 Bft)
30.06.2006 16:00 28.3 C 35 % 1020.0 hPa 0.0 l/m 17.6 km/h (3 Bft) O-SO 1.00 h 0.0 UV-I 658 W/m 11.2 C 28.3 C 17.6 km/h (3 Bft)
30.06.2006 17:00 28.4 C 33 % 1020.0 hPa 0.0 l/m 18.0 km/h (3 Bft) O-SO 1.00 h 0.0 UV-I 539 W/m 10.3 C 28.4 C 18.0 km/h (3 Bft)
30.06.2006 18:00 28.2 C 30 % 1020.0 hPa 0.0 l/m 12.8 km/h (3 Bft) O-SO 1.00 h 0.0 UV-I 395 W/m 9.0 C 28.2 C 12.8 km/h (3 Bft)
30.06.2006 19:00 27.2 C 33 % 1020.1 hPa 0.0 l/m 6.7 km/h (2 Bft) O-SO 1.00 h 0.0 UV-I 241 W/m 9.4 C 27.2 C 6.7 km/h (2 Bft)
30.06.2006 20:00 25.4 C 41 % 1020.4 hPa 0.0 l/m 0.1 km/h (0 Bft) N 0.77 h 0.0 UV-I 86 W/m 11.1 C 25.4 C 0.1 km/h (0 Bft)
30.06.2006 21:00 22.0 C 54 % 1021.2 hPa 0.0 l/m 1.3 km/h (1 Bft) O-SO 0.10 h 0.0 UV-I 14 W/m 12.3 C 22.0 C 1.3 km/h (1 Bft)
30.06.2006 22:00 19.9 C 65 % 1022.1 hPa 0.0 l/m 0.5 km/h (0 Bft) SO 0.00 h 0.0 UV-I 0 W/m 13.1 C 19.9 C 0.5 km/h (0 Bft)
30.06.2006 23:00 18.6 C 73 % 1022.3 hPa 0.0 l/m 0.1 km/h (0 Bft) O-SO 0.00 h 0.0 UV-I 0 W/m 13.7 C 18.6 C 0.1 km/h (0 Bft)
01.07.2006 00:00 17.7 C 80 % 1023.0 hPa 0.0 l/m 0.9 km/h (0 Bft) O-SO 0.00 h 0.0 UV-I 0 W/m 14.1 C 17.7 C 0.9 km/h (0 Bft)
01.07.2006 01:00 16.9 C 84 % 1022.5 hPa 0.0 l/m 0.2 km/h (0 Bft) SO 0.00 h 0.0 UV-I 0 W/m 14.1 C 16.9 C 0.2 km/h (0 Bft)
01.07.2006 02:00 16.2 C 86 % 1022.6 hPa 0.0 l/m 0.4 km/h (0 Bft) SO 0.00 h 0.0 UV-I 0 W/m 13.9 C 16.2 C 0.4 km/h (0 Bft)
01.07.2006 03:00 15.5 C 91 % 1022.7 hPa 0.0 l/m 2.0 km/h (1 Bft) O 0.00 h 0.0 UV-I 0 W/m 14.0 C 15.5 C 2.0 km/h (1 Bft)
01.07.2006 04:00 15.1 C 90 % 1022.7 hPa 0.0 l/m 1.2 km/h (1 Bft) O 0.00 h 0.0 UV-I 0 W/m 13.5 C 15.1 C 1.2 km/h (1 Bft)
01.07.2006 05:00 14.4 C 95 % 1022.8 hPa 0.0 l/m 0.0 km/h (0 Bft) N 0.07 h 0.0 UV-I 13 W/m 13.6 C 14.4 C 0.0 km/h (0 Bft)
01.07.2006 06:00 14.6 C 90 % 1022.8 hPa 0.0 l/m 0.1 km/h (0 Bft) N 0.10 h 0.0 UV-I 55 W/m 12.9 C 14.6 C 0.1 km/h (0 Bft)
01.07.2006 07:00 16.0 C 86 % 1022.6 hPa 0.0 l/m 0.6 km/h (0 Bft) S 0.97 h 0.0 UV-I 224 W/m 13.7 C 16.0 C 0.6 km/h (0 Bft)
01.07.2006 08:00 18.5 C 73 % 1022.3 hPa 0.0 l/m 2.6 km/h (1 Bft) O-SO 1.00 h 0.0 UV-I 393 W/m 13.5 C 18.5 C 2.6 km/h (1 Bft)
01.07.2006 09:00 20.8 C 62 % 1022.0 hPa 0.0 l/m 6.0 km/h (2 Bft) O 1.00 h 0.0 UV-I 531 W/m 13.2 C 20.8 C 6.0 km/h (2 Bft)
01.07.2006 10:00 23.0 C 52 % 1021.7 hPa 0.0 l/m 11.8 km/h (2 Bft) O-NO 1.00 h 0.0 UV-I 650 W/m 12.7 C 23.0 C 11.8 km/h (2 Bft)
01.07.2006 11:00 24.1 C 46 % 1020.9 hPa 0.0 l/m 18.1 km/h (3 Bft) O-NO 1.00 h 0.0 UV-I 742 W/m 11.6 C 24.1 C 18.1 km/h (3 Bft)
01.07.2006 12:00 25.5 C 43 % 1020.3 hPa 0.0 l/m 18.7 km/h (3 Bft) O-NO 1.00 h 0.0 UV-I 795 W/m 12.1 C 25.5 C 18.7 km/h (3 Bft)
01.07.2006 13:00 26.3 C 39 % 1020.2 hPa 0.0 l/m 18.1 km/h (3 Bft) O 1.00 h 0.0 UV-I 813 W/m 11.1 C 26.3 C 18.1 km/h (3 Bft)
01.07.2006 14:00 27.1 C 36 % 1019.9 hPa 0.0 l/m 14.9 km/h (3 Bft) O 1.00 h 0.0 UV-I 796 W/m 10.8 C 27.1 C 14.9 km/h (3 Bft)
01.07.2006 15:00 27.5 C 37 % 1019.1 hPa 0.0 l/m 15.3 km/h (3 Bft) NO 0.90 h 0.0 UV-I 701 W/m 11.3 C 27.5 C 15.3 km/h (3 Bft)
01.07.2006 16:00 27.5 C 37 % 1019.0 hPa 0.0 l/m 22.5 km/h (4 Bft) O-SO 0.90 h 0.0 UV-I 620 W/m 11.3 C 27.5 C 22.5 km/h (4 Bft)
01.07.2006 17:00 27.3 C 37 % 1019.1 hPa 0.0 l/m 17.4 km/h (3 Bft) O-SO 0.70 h 0.0 UV-I 444 W/m 11.2 C 27.3 C 17.4 km/h (3 Bft)
01.07.2006 18:00 26.7 C 36 % 1018.4 hPa 0.0 l/m 14.4 km/h (3 Bft) O 0.77 h 0.0 UV-I 340 W/m 10.3 C 26.7 C 14.4 km/h (3 Bft)
01.07.2006 19:00 25.9 C 36 % 1018.2 hPa 0.0 l/m 13.0 km/h (3 Bft) O 1.00 h 0.0 UV-I 271 W/m 9.6 C 25.9 C 13.0 km/h (3 Bft)
01.07.2006 20:00 24.8 C 39 % 1018.4 hPa 0.0 l/m 5.7 km/h (1 Bft) NO 0.87 h 0.0 UV-I 118 W/m 9.8 C 24.8 C 5.7 km/h (1 Bft)
01.07.2006 21:00 22.9 C 47 % 1018.6 hPa 0.0 l/m 7.5 km/h (2 Bft) NO 0.27 h 0.0 UV-I 22 W/m 10.9 C 22.9 C 7.5 km/h (2 Bft)
01.07.2006 22:00 21.4 C 52 % 1019.8 hPa 0.0 l/m 10.7 km/h (2 Bft) NO 0.00 h 0.0 UV-I 0 W/m 11.1 C 21.4 C 10.7 km/h (2 Bft)
01.07.2006 23:00 20.3 C 57 % 1020.0 hPa 0.0 l/m 14.2 km/h (3 Bft) N-NO 0.00 h 0.0 UV-I 0 W/m 11.4 C 20.3 C 14.2 km/h (3 Bft)
02.07.2006 00:00 19.4 C 61 % 1019.8 hPa 0.0 l/m 12.1 km/h (2 Bft) N-NO 0.00 h 0.0 UV-I 0 W/m 11.7 C 19.4 C 12.1 km/h (2 Bft)
02.07.2006 01:00 18.5 C 62 % 1019.1 hPa 0.0 l/m 6.1 km/h (2 Bft) N-NO 0.00 h 0.0 UV-I 0 W/m 11.2 C 18.5 C 6.1 km/h (2 Bft)
02.07.2006 02:00 17.9 C 63 % 1019.2 hPa 0.0 l/m 4.8 km/h (1 Bft) N 0.00 h 0.0 UV-I 0 W/m 10.8 C 17.9 C 4.8 km/h (1 Bft)
02.07.2006 03:00 17.1 C 66 % 1019.3 hPa 0.0 l/m 3.3 km/h (1 Bft) N-NO 0.00 h 0.0 UV-I 0 W/m 10.7 C 17.1 C 3.3 km/h (1 Bft)
02.07.2006 04:00 16.0 C 69 % 1019.5 hPa 0.0 l/m 2.1 km/h (1 Bft) O-SO 0.00 h 0.0 UV-I 0 W/m 10.3 C 16.0 C 2.1 km/h (1 Bft)
02.07.2006 05:00 15.4 C 71 % 1019.5 hPa 0.0 l/m 1.6 km/h (1 Bft) NO 0.07 h 0.0 UV-I 13 W/m 10.1 C 15.4 C 1.6 km/h (1 Bft)
02.07.2006 06:00 14.7 C 77 % 1019.6 hPa 0.0 l/m 0.2 km/h (0 Bft) O-SO 0.13 h 0.0 UV-I 55 W/m 10.7 C 14.7 C 0.2 km/h (0 Bft)
02.07.2006 07:00 15.9 C 74 % 1019.5 hPa 0.0 l/m 0.1 km/h (0 Bft) N 0.90 h 0.0 UV-I 237 W/m 11.2 C 15.9 C 0.1 km/h (0 Bft)
02.07.2006 08:00 18.1 C 62 % 1019.2 hPa 0.0 l/m 5.5 km/h (1 Bft) O 1.00 h 0.0 UV-I 392 W/m 10.7 C 18.1 C 5.5 km/h (1 Bft)
02.07.2006 09:00 20.1 C 55 % 1019.0 hPa 0.0 l/m 8.2 km/h (2 Bft) O-SO 1.00 h 0.0 UV-I 530 W/m 10.8 C 20.1 C 8.2 km/h (2 Bft)
02.07.2006 10:00 21.8 C 51 % 1018.7 hPa 0.0 l/m 12.5 km/h (3 Bft) O 1.00 h 0.0 UV-I 648 W/m 11.2 C 21.8 C 12.5 km/h (3 Bft)
02.07.2006 11:00 23.4 C 48 % 1017.7 hPa 0.0 l/m 10.2 km/h (2 Bft) O 1.00 h 0.0 UV-I 738 W/m 11.8 C 23.4 C 10.2 km/h (2 Bft)
02.07.2006 12:00 25.3 C 46 % 1017.3 hPa 0.0 l/m 14.3 km/h (3 Bft) O-SO 1.00 h 0.0 UV-I 795 W/m 12.7 C 25.3 C 14.3 km/h (3 Bft)
02.07.2006 13:00 26.6 C 41 % 1017.1 hPa 0.0 l/m 17.6 km/h (3 Bft) O-SO 0.98 h 0.0 UV-I 811 W/m 12.3 C 26.6 C 17.6 km/h (3 Bft)
02.07.2006 14:00 27.5 C 38 % 1016.3 hPa 0.0 l/m 19.6 km/h (3 Bft) O-SO 1.02 h 0.0 UV-I 796 W/m 11.8 C 27.5 C 19.6 km/h (3 Bft)
02.07.2006 15:00 28.2 C 36 % 1015.9 hPa 0.0 l/m 22.4 km/h (4 Bft) O-SO 1.00 h 0.0 UV-I 744 W/m 11.6 C 28.2 C 22.4 km/h (4 Bft)
02.07.2006 16:00 28.7 C 32 % 1015.7 hPa 0.0 l/m 20.7 km/h (4 Bft) O-SO 1.00 h 0.0 UV-I 658 W/m 10.5 C 28.7 C 20.7 km/h (4 Bft)
02.07.2006 17:00 28.7 C 31 % 1014.8 hPa 0.0 l/m 23.2 km/h (4 Bft) O-SO 1.00 h 0.0 UV-I 543 W/m 9.7 C 28.7 C 23.2 km/h (4 Bft)
02.07.2006 18:00 28.2 C 31 % 1014.8 hPa 0.0 l/m 22.9 km/h (4 Bft) O-SO 1.00 h 0.0 UV-I 410 W/m 9.5 C 28.2 C 22.9 km/h (4 Bft)
02.07.2006 19:00 27.3 C 34 % 1014.9 hPa 0.0 l/m 11.2 km/h (2 Bft) O-SO 1.00 h 0.0 UV-I 268 W/m 10.2 C 27.3 C 11.2 km/h (2 Bft)
02.07.2006 20:00 25.7 C 36 % 1015.1 hPa 0.0 l/m 6.0 km/h (2 Bft) O 0.93 h 0.0 UV-I 116 W/m 9.5 C 25.7 C 6.0 km/h (2 Bft)
02.07.2006 21:00 23.3 C 43 % 1015.6 hPa 0.0 l/m 6.3 km/h (2 Bft) NO 0.27 h 0.0 UV-I 19 W/m 10.1 C 23.3 C 6.3 km/h (2 Bft)
02.07.2006 22:00 21.3 C 48 % 1016.7 hPa 0.0 l/m 8.2 km/h (2 Bft) NO 0.00 h 0.0 UV-I 0 W/m 9.9 C 21.3 C 8.2 km/h (2 Bft)
02.07.2006 23:00 20.1 C 52 % 1016.9 hPa 0.0 l/m 3.3 km/h (1 Bft) N 0.00 h 0.0 UV-I 0 W/m 9.9 C 20.1 C 3.3 km/h (1 Bft)
Min-Datum _ 01.07.06 30.06.06 28.06.06 - 26.06.06 - - - - 30.06.06 01.07.06 26.06.06
_ Min-Zeit 05:17 16:07 19:01 - 00:37 - - - - 18:37 05:17 00:37
Minimum _ 14.1 C 28 % 1013.9 hPa - 0.0 km/h (0 Bft) - - - - 7.9 C 14.1 C 0.0 km/h (0 Bft)
Max-Datum _ 30.06.06 28.06.06 01.07.06 28.06.06 27.06.06 - 26.06.06 26.06.06 27.06.06 27.06.06 30.06.06 27.06.06
_ Max-Zeit 17:05 06:19 00:05 23:47 11:19 - 08:33 00:00 12:49 14:05 17:05 11:19
Maximum _ 29.3 C 100 % 1023.4 hPa 2.3 l/m 45.0 km/h
W (6 Bft)
- 0.05 h 0.0 UV-I 974 W/m 18.6 C 29.3 C 45.0 km/h
W-NW (6 Bft)
Durchschnitt _ 20.8 C 69 % 1018.4 hPa #11.4 l/m 6.1 km/h (2 Bft) O-SO #71:57 h 0.0 UV-I 368 W/m 14.1 C 20.8 C 6.1 km/h (2 Bft)
© Kaiko 2006